| time (UTC) | temp C | wind direction | speed KPH | gust KPH | rain 1hr cm | rain 24hr cm | rain mn cm | humidity % | barometer mb |
| 20260510100018 | 8 | 23 | 0.0 | 1.6 | 0.00 | 0.00 | 0.00 | 98 | 1011.7 |
| 20260510095018 | 8 | 44 | 0.0 | 1.6 | 0.00 | 0.00 | 0.00 | 98 | 1011.8 |
| 20260510094100 | 9 | 32 | 0.0 | 3.2 | 0.00 | 0.00 | 0.00 | 98 | 1011.6 |
| 20260510093038 | 9 | 89 | 0.0 | 1.6 | 0.00 | 0.00 | 0.00 | 98 | 1011.5 |
| 20260510092018 | 9 | 360 | 0.0 | 3.2 | 0.00 | 0.00 | 0.00 | 98 | 1011.6 |
| 20260510091016 | 9 | 62 | 0.0 | 3.2 | 0.00 | 0.00 | 0.00 | 98 | 1011.7 |
| 20260510090018 | 9 | 316 | 0.0 | 3.2 | 0.00 | 0.00 | 0.00 | 98 | 1011.6 |
| 20260510085016 | 9 | 89 | 1.6 | 6.4 | 0.00 | 0.00 | 0.00 | 98 | 1011.5 |
| 20260510084016 | 9 | 294 | 1.6 | 4.8 | 0.00 | 0.00 | 0.00 | 98 | 1011.6 |
| 20260510083016 | 10 | 338 | 1.6 | 4.8 | 0.00 | 0.00 | 0.00 | 98 | 1011.7 |
| 20260510082016 | 10 | 232 | 1.6 | 4.8 | 0.00 | 0.00 | 0.00 | 98 | 1011.7 |
| 20260510081016 | 9 | 302 | 1.6 | 4.8 | 0.00 | 0.00 | 0.00 | 98 | 1011.7 |
| 20260510080016 | 8 | 66 | 1.6 | 3.2 | 0.00 | 0.00 | 0.00 | 98 | 1011.1 |
| 20260510075016 | 8 | 67 | 1.6 | 4.8 | 0.00 | 0.00 | 0.00 | 98 | 1011.0 |
| 20260510074016 | 8 | 55 | 1.6 | 4.8 | 0.00 | 0.00 | 0.00 | 98 | 1010.8 |
| 20260510073017 | 8 | 61 | 1.6 | 3.2 | 0.00 | 0.00 | 0.00 | 98 | 1010.8 |
| 20260510072037 | 8 | 84 | 1.6 | 3.2 | 0.00 | 0.00 | 0.00 | 98 | 1010.7 |
| 20260510071017 | 8 | 100 | 1.6 | 6.4 | 0.00 | 0.00 | 0.00 | 98 | 1010.7 |
| 20260510070017 | 8 | 115 | 4.8 | 11.3 | 0.00 | 0.00 | 0.00 | 98 | 1010.6 |
| 20260510065018 | 8 | 8 | 4.8 | 8.0 | 0.00 | 0.00 | 0.00 | 98 | 1010.4 |
| 20260510064037 | 8 | 83 | 3.2 | 9.7 | 0.00 | 0.00 | 0.00 | 98 | 1010.2 |
| 20260510063018 | 8 | 123 | 1.6 | 8.0 | 0.00 | 0.00 | 0.00 | 98 | 1010.1 |
| 20260510062018 | 9 | 74 | 1.6 | 3.2 | 0.00 | 0.00 | 0.00 | 98 | 1010.3 |
| 20260510061038 | 8 | 109 | 3.2 | 9.7 | 0.00 | 0.00 | 0.00 | 98 | 1010.5 |
| 20260510060018 | 9 | 78 | 1.6 | 4.8 | 0.00 | 0.00 | 0.00 | 98 | 1010.5 |
| 20260510055018 | 9 | 43 | 1.6 | 4.8 | 0.00 | 0.00 | 0.00 | 98 | 1010.5 |
| 20260510054018 | 9 | 62 | 0.0 | 3.2 | 0.00 | 0.00 | 0.00 | 98 | 1010.5 |
| 20260510053018 | 9 | 52 | 1.6 | 4.8 | 0.00 | 0.00 | 0.00 | 97 | 1010.5 |
| 20260510052018 | 10 | 29 | 1.6 | 4.8 | 0.00 | 0.00 | 0.00 | 97 | 1010.7 |
| 20260510051019 | 10 | 56 | 1.6 | 4.8 | 0.00 | 0.00 | 0.00 | 97 | 1010.8 |
| 20260510050016 | 10 | 68 | 0.0 | 3.2 | 0.00 | 0.00 | 0.00 | 97 | 1010.8 |
| 20260510045019 | 10 | 20 | 1.6 | 3.2 | 0.00 | 0.00 | 0.00 | 97 | 1010.8 |
| 20260510044015 | 10 | 9 | 0.0 | 3.2 | 0.00 | 0.00 | 0.00 | 97 | 1010.8 |
| 20260510043016 | 10 | 55 | 0.0 | 1.6 | 0.00 | 0.00 | 0.00 | 97 | 1010.8 |
| 20260510042016 | 10 | 95 | 1.6 | 3.2 | 0.00 | 0.00 | 0.00 | 97 | 1010.8 |
| 20260510041016 | 10 | 20 | 1.6 | 3.2 | 0.00 | 0.00 | 0.00 | 97 | 1010.9 |
| 20260510040016 | 10 | 43 | 0.0 | 3.2 | 0.00 | 0.00 | 0.00 | 97 | 1011.0 |
| 20260510035016 | 10 | 59 | 1.6 | 3.2 | 0.00 | 0.00 | 0.00 | 97 | 1011.0 |
| 20260510034018 | 11 | 58 | 1.6 | 3.2 | 0.00 | 0.00 | 0.00 | 97 | 1010.9 |
| 20260510033017 | 11 | 68 | 0.0 | 3.2 | 0.00 | 0.00 | 0.00 | 96 | 1010.9 |
| 20260510032017 | 11 | 72 | 1.6 | 1.6 | 0.00 | 0.00 | 0.00 | 96 | 1010.9 |
| 20260510031017 | 11 | 77 | 1.6 | 3.2 | 0.00 | 0.00 | 0.00 | 96 | 1010.8 |
| 20260510030016 | 11 | 86 | 0.0 | 3.2 | 0.00 | 0.00 | 0.00 | 96 | 1010.8 |
| 20260510025057 | 11 | 93 | 0.0 | 1.6 | 0.00 | 0.00 | 0.00 | 96 | 1010.7 |
| 20260510024037 | 11 | 87 | 0.0 | 3.2 | 0.00 | 0.00 | 0.00 | 96 | 1010.6 |
| 20260510023017 | 11 | 66 | 0.0 | 1.6 | 0.00 | 0.00 | 0.00 | 95 | 1010.6 |
| 20260510022018 | 11 | 45 | 0.0 | 1.6 | 0.00 | 0.00 | 0.00 | 95 | 1010.6 |
| 20260510021018 | 11 | 65 | 0.0 | 1.6 | 0.00 | 0.00 | 0.00 | 95 | 1010.7 |
| 20260510020018 | 11 | 90 | 0.0 | 3.2 | 0.00 | 0.00 | 0.00 | 95 | 1010.6 |
| 20260510015018 | 11 | 63 | 0.0 | 3.2 | 0.00 | 0.00 | 0.00 | 94 | 1010.4 |
| 20260510014017 | 11 | 54 | 0.0 | 1.6 | 0.00 | 0.00 | 0.00 | 94 | 1010.4 |
| 20260510013018 | 12 | 42 | 0.0 | 1.6 | 0.00 | 0.00 | 0.00 | 93 | 1010.3 |
| 20260510012018 | 12 | 57 | 1.6 | 3.2 | 0.00 | 0.00 | 0.00 | 93 | 1010.2 |
| 20260510011018 | 12 | 45 | 0.0 | 1.6 | 0.00 | 0.00 | 0.00 | 92 | 1010.0 |
| 20260510010018 | 12 | 53 | 0.0 | 3.2 | 0.00 | 0.00 | 0.00 | 91 | 1009.9 |
| 20260510005015 | 12 | 335 | 0.0 | 3.2 | 0.00 | 0.00 | 0.00 | 90 | 1009.7 |
| 20260510004017 | 13 | 54 | 0.0 | 3.2 | 0.00 | 0.00 | 0.00 | 89 | 1009.7 |
| 20260510003016 | 13 | 74 | 0.0 | 3.2 | 0.00 | 0.00 | 0.00 | 88 | 1009.7 |
| 20260510002036 | 13 | 35 | 0.0 | 3.2 | 0.00 | 0.00 | 0.00 | 86 | 1009.7 |
| 20260510001016 | 14 | 43 | 0.0 | 1.6 | 0.00 | 0.00 | 0.00 | 85 | 1009.7 |
| 20260510000016 | 15 | 38 | 0.0 | 3.2 | 0.00 | 0.00 | 0.00 | 83 | 1009.6 |
| 20260509235016 | 15 | 15 | 0.0 | 1.6 | 0.00 | 0.00 | 0.00 | 81 | 1009.6 |
| 20260509234017 | 16 | 19 | 0.0 | 3.2 | 0.00 | 0.00 | 0.00 | 80 | 1009.5 |
| 20260509233017 | 16 | 317 | 0.0 | 3.2 | 0.00 | 0.00 | 0.00 | 78 | 1009.5 |
| 20260509232017 | 17 | 12 | 1.6 | 4.8 | 0.00 | 0.00 | 0.00 | 75 | 1009.5 |
| 20260509231017 | 18 | 341 | 0.0 | 3.2 | 0.00 | 0.00 | 0.00 | 72 | 1009.6 |
| 20260509230038 | 18 | 153 | 1.6 | 4.8 | 0.00 | 0.00 | 0.00 | 72 | 1009.6 |
| 20260509225018 | 18 | 297 | 1.6 | 4.8 | 0.00 | 0.00 | 0.00 | 70 | 1009.7 |
| 20260509224017 | 18 | 321 | 1.6 | 3.2 | 0.00 | 0.00 | 0.00 | 70 | 1009.6 |
| 20260509223017 | 18 | 146 | 3.2 | 8.0 | 0.00 | 0.00 | 0.00 | 70 | 1009.6 |
| 20260509222018 | 17 | 3 | 1.6 | 4.8 | 0.00 | 0.00 | 0.00 | 71 | 1009.9 |
| 20260509221038 | 17 | 140 | 3.2 | 8.0 | 0.00 | 0.00 | 0.00 | 71 | 1010.0 |
| 20260509220019 | 17 | 133 | 3.2 | 9.7 | 0.00 | 0.00 | 0.00 | 72 | 1010.0 |
| 20260509215038 | 17 | 148 | 3.2 | 11.3 | 0.00 | 0.00 | 0.00 | 72 | 1010.0 |
| 20260509214018 | 17 | 138 | 1.6 | 8.0 | 0.00 | 0.00 | 0.00 | 73 | 1009.9 |
| 20260509213018 | 17 | 139 | 1.6 | 6.4 | 0.00 | 0.00 | 0.00 | 71 | 1009.8 |
| 20260509212015 | 17 | 149 | 3.2 | 11.3 | 0.00 | 0.00 | 0.00 | 70 | 1009.9 |
| 20260509211036 | 17 | 121 | 3.2 | 14.5 | 0.00 | 0.00 | 0.00 | 69 | 1009.9 |
| 20260509210016 | 17 | 150 | 4.8 | 9.7 | 0.00 | 0.00 | 0.00 | 70 | 1009.8 |
| 20260509205016 | 17 | 153 | 1.6 | 6.4 | 0.00 | 0.00 | 0.00 | 70 | 1009.8 |
| 20260509204035 | 17 | 250 | 0.0 | 3.2 | 0.00 | 0.00 | 0.00 | 71 | 1009.6 |
| 20260509203016 | 17 | 143 | 1.6 | 8.0 | 0.00 | 0.00 | 0.00 | 69 | 1009.7 |
| 20260509202116 | 17 | 163 | 1.6 | 6.4 | 0.00 | 0.00 | 0.00 | 70 | 1009.8 |
| 20260509201016 | 17 | 82 | 3.2 | 6.4 | 0.00 | 0.00 | 0.00 | 69 | 1010.0 |
| 20260509200017 | 18 | 141 | 4.8 | 9.7 | 0.00 | 0.00 | 0.00 | 68 | 1010.1 |
| 20260509195017 | 18 | 124 | 4.8 | 9.7 | 0.00 | 0.00 | 0.00 | 66 | 1010.2 |
| 20260509194016 | 18 | 113 | 3.2 | 9.7 | 0.00 | 0.00 | 0.00 | 67 | 1010.3 |
| 20260509193037 | 18 | 213 | 1.6 | 4.8 | 0.00 | 0.00 | 0.00 | 68 | 1010.3 |
| 20260509192017 | 18 | 113 | 3.2 | 9.7 | 0.00 | 0.00 | 0.00 | 67 | 1010.4 |
| 20260509191017 | 17 | 138 | 4.8 | 14.5 | 0.00 | 0.00 | 0.00 | 68 | 1010.8 |
| 20260509190038 | 17 | 157 | 4.8 | 11.3 | 0.00 | 0.00 | 0.00 | 70 | 1010.9 |
| 20260509185017 | 17 | 132 | 4.8 | 11.3 | 0.00 | 0.00 | 0.00 | 70 | 1010.9 |
| 20260509184017 | 17 | 204 | 3.2 | 9.7 | 0.00 | 0.00 | 0.00 | 72 | 1011.2 |
| 20260509183018 | 17 | 359 | 1.6 | 4.8 | 0.00 | 0.00 | 0.00 | 70 | 1011.3 |
| 20260509182037 | 17 | 121 | 1.6 | 4.8 | 0.00 | 0.00 | 0.00 | 70 | 1011.4 |
| 20260509181058 | 17 | 44 | 0.0 | 1.6 | 0.00 | 0.00 | 0.00 | 74 | 1011.2 |
| 20260509180018 | 17 | 331 | 0.0 | 1.6 | 0.00 | 0.00 | 0.00 | 68 | 1011.2 |
| 20260509175019 | 17 | 30 | 0.0 | 1.6 | 0.00 | 0.00 | 0.00 | 71 | 1011.3 |
| 20260509174017 | 17 | 29 | 0.0 | 1.6 | 0.00 | 0.00 | 0.00 | 70 | 1011.4 |
| 20260509173019 | 17 | 8 | 0.0 | 1.6 | 0.00 | 0.00 | 0.00 | 65 | 1011.5 |
| 20260509172102 | 17 | 303 | 1.6 | 3.2 | 0.00 | 0.00 | 0.00 | 65 | 1011.5 |
| 20260509171016 | 17 | 289 | 3.2 | 3.2 | 0.00 | 0.00 | 0.00 | 64 | 1011.6 |
| 20260509170038 | 17 | 333 | 1.6 | 3.2 | 0.00 | 0.00 | 0.00 | 65 | 1011.6 |
| 20260509165016 | 17 | 293 | 1.6 | 3.2 | 0.00 | 0.00 | 0.00 | 66 | 1011.6 |
| 20260509164016 | 17 | 272 | 1.6 | 4.8 | 0.00 | 0.00 | 0.00 | 66 | 1011.7 |
| 20260509163016 | 17 | 295 | 3.2 | 6.4 | 0.00 | 0.00 | 0.00 | 67 | 1011.6 |
| 20260509162016 | 17 | 307 | 1.6 | 4.8 | 0.00 | 0.00 | 0.00 | 65 | 1011.5 |
| 20260509161016 | 17 | 261 | 1.6 | 6.4 | 0.00 | 0.00 | 0.00 | 64 | 1011.4 |
| 20260509160018 | 18 | 273 | 3.2 | 9.7 | 0.00 | 0.00 | 0.00 | 64 | 1011.6 |
| 20260509155016 | 17 | 72 | 3.2 | 8.0 | 0.00 | 0.00 | 0.00 | 62 | 1011.7 |
| 20260509154017 | 17 | 293 | 3.2 | 8.0 | 0.00 | 0.00 | 0.00 | 64 | 1012.0 |
| 20260509153017 | 17 | 297 | 1.6 | 4.8 | 0.00 | 0.00 | 0.00 | 64 | 1012.2 |
| 20260509152018 | 16 | 301 | 1.6 | 4.8 | 0.00 | 0.00 | 0.00 | 66 | 1012.3 |
| 20260509151017 | 16 | 294 | 3.2 | 6.4 | 0.00 | 0.00 | 0.00 | 67 | 1012.4 |
| 20260509150018 | 16 | 277 | 3.2 | 6.4 | 0.00 | 0.00 | 0.00 | 66 | 1012.4 |
| 20260509145018 | 16 | 277 | 3.2 | 8.0 | 0.00 | 0.00 | 0.00 | 66 | 1012.5 |
| 20260509144018 | 16 | 292 | 3.2 | 6.4 | 0.00 | 0.00 | 0.00 | 66 | 1012.5 |
| 20260509143018 | 16 | 277 | 4.8 | 12.9 | 0.00 | 0.00 | 0.00 | 66 | 1012.6 |
| 20260509142018 | 16 | 288 | 3.2 | 8.0 | 0.00 | 0.00 | 0.00 | 68 | 1012.6 |
| 20260509141018 | 16 | 288 | 1.6 | 4.8 | 0.00 | 0.00 | 0.00 | 68 | 1012.4 |
| 20260509140019 | 16 | 277 | 3.2 | 6.4 | 0.00 | 0.00 | 0.00 | 70 | 1012.2 |
| 20260509135019 | 16 | 261 | 3.2 | 6.4 | 0.00 | 0.00 | 0.00 | 70 | 1012.1 |
| 20260509134039 | 16 | 284 | 3.2 | 6.4 | 0.00 | 0.00 | 0.00 | 74 | 1012.2 |
| 20260509133039 | 16 | 287 | 4.8 | 9.7 | 0.00 | 0.00 | 0.00 | 74 | 1012.3 |
| 20260509132056 | 15 | 296 | 3.2 | 6.4 | 0.00 | 0.00 | 0.00 | 76 | 1012.3 |
| 20260509131016 | 15 | 293 | 3.2 | 4.8 | 0.00 | 0.00 | 0.00 | 78 | 1012.3 |
| 20260509130031 | 15 | 276 | 3.2 | 8.0 | 0.00 | 0.00 | 0.00 | 79 | 1012.3 |
| 20260509125036 | 15 | 288 | 3.2 | 9.7 | 0.00 | 0.00 | 0.00 | 79 | 1012.2 |
| 20260509124036 | 15 | 275 | 3.2 | 6.4 | 0.00 | 0.00 | 0.00 | 79 | 1012.2 |
| 20260509123036 | 15 | 260 | 3.2 | 9.7 | 0.00 | 0.00 | 0.00 | 79 | 1012.1 |
| 20260509122036 | 15 | 273 | 4.8 | 8.0 | 0.00 | 0.00 | 0.00 | 80 | 1012.1 |
| 20260509121017 | 15 | 276 | 4.8 | 11.3 | 0.00 | 0.00 | 0.00 | 80 | 1012.2 |
| 20260509120016 | 15 | 266 | 4.8 | 8.0 | 0.00 | 0.00 | 0.00 | 80 | 1012.1 |
| 20260509115022 | 15 | 272 | 4.8 | 8.0 | 0.00 | 0.00 | 0.00 | 79 | 1012.2 |
| 20260509114016 | 14 | 284 | 4.8 | 11.3 | 0.00 | 0.00 | 0.00 | 79 | 1012.1 |
| 20260509113017 | 14 | 262 | 1.6 | 3.2 | 0.00 | 0.00 | 0.00 | 79 | 1011.9 |
| 20260509112037 | 14 | 276 | 3.2 | 4.8 | 0.00 | 0.00 | 0.00 | 79 | 1011.8 |
| 20260509111017 | 13 | 289 | 1.6 | 4.8 | 0.00 | 0.00 | 0.00 | 78 | 1011.8 |
| 20260509110017 | 13 | 300 | 1.6 | 3.2 | 0.00 | 0.00 | 0.00 | 77 | 1011.6 |
| 20260509105017 | 13 | 248 | 1.6 | 6.4 | 0.00 | 0.00 | 0.00 | 77 | 1011.6 |
| 20260509104017 | 13 | 326 | 1.6 | 3.2 | 0.00 | 0.00 | 0.00 | 77 | 1011.6 |
| 20260509103018 | 13 | 329 | 1.6 | 3.2 | 0.00 | 0.00 | 0.00 | 76 | 1011.5 |
| 20260509102016 | 13 | 338 | 1.6 | 3.2 | 0.00 | 0.00 | 0.00 | 75 | 1011.4 |
| 20260509101016 | 12 | 339 | 1.6 | 3.2 | 0.00 | 0.00 | 0.00 | 74 | 1011.3 |